createdAt,value
2018-07-30T00:07:01.937Z,8.35
2018-07-30T00:07:53.708Z,8.40
2018-07-30T00:19:45.389Z,8.43
2018-07-30T00:20:30.546Z,8.53
2018-07-30T00:21:03.655Z,8.50
2018-07-30T00:21:36.982Z,8.93
2018-07-30T00:22:10.142Z,9.03
2018-07-30T00:22:43.237Z,8.25
2018-07-30T00:23:16.337Z,9.20
2018-07-30T00:23:49.471Z,9.55
2018-07-30T00:24:22.595Z,8.68
2018-07-30T00:24:55.860Z,9.05
2018-07-30T00:25:28.955Z,8.53
2018-07-30T00:26:02.029Z,8.90
2018-07-30T00:26:35.113Z,8.85
2018-07-30T00:27:08.228Z,8.48
2018-07-30T00:27:41.535Z,9.33
2018-07-30T00:28:14.806Z,9.15
2018-07-30T00:28:47.890Z,9.50
2018-07-30T00:29:20.993Z,8.75
2018-07-30T00:29:54.054Z,8.93
2018-07-30T00:30:27.153Z,8.95
2018-07-30T00:31:00.278Z,9.10
2018-07-30T00:31:33.547Z,8.55
2018-07-30T00:32:06.582Z,9.13
2018-07-30T00:32:39.704Z,9.10
2018-07-30T00:33:12.800Z,9.05
2018-07-30T00:33:45.964Z,7.95
2018-07-30T00:34:19.091Z,9.50
2018-07-30T00:34:52.166Z,9.00
2018-07-30T00:35:25.279Z,8.53
2018-07-30T00:35:58.396Z,9.33
2018-07-30T00:36:32.018Z,8.90
2018-07-30T00:37:05.134Z,8.93
2018-07-30T00:37:38.222Z,10.05
2018-07-30T00:38:11.347Z,9.88
2018-07-30T00:38:44.452Z,9.83
2018-07-30T00:39:17.553Z,9.43
2018-07-30T00:39:50.663Z,9.10
2018-07-30T00:40:24.763Z,9.13
2018-07-30T00:40:57.863Z,9.08
2018-07-30T00:41:30.968Z,9.68
2018-07-30T00:42:04.445Z,9.70
2018-07-30T00:42:37.546Z,8.98
2018-07-30T00:43:10.731Z,9.00
2018-07-30T00:43:43.834Z,9.43
2018-07-30T00:44:16.943Z,9.13
2018-07-30T00:44:50.325Z,9.30
2018-07-30T00:45:23.443Z,9.00
2018-07-30T00:45:56.587Z,8.80
2018-07-30T00:46:29.724Z,9.03
2018-07-30T00:47:03.011Z,8.80
2018-07-30T00:47:36.254Z,9.80
2018-07-30T00:48:09.410Z,8.70
2018-07-30T00:48:42.467Z,8.78
2018-07-30T00:49:15.560Z,9.05
2018-07-30T00:49:48.643Z,8.83
2018-07-30T00:50:21.768Z,9.05
2018-07-30T00:50:55.311Z,8.85
2018-07-30T00:51:28.478Z,9.35
2018-07-30T00:52:01.855Z,8.38
2018-07-30T00:52:34.944Z,8.38
2018-07-30T00:53:08.287Z,9.60
2018-07-30T00:53:41.385Z,10.05
2018-07-30T00:54:14.501Z,8.53
2018-07-30T00:54:47.635Z,9.48
2018-07-30T00:55:20.746Z,9.20
2018-07-30T00:55:54.509Z,9.10
2018-07-30T00:56:27.614Z,8.98
2018-07-30T00:57:02.475Z,9.78
2018-07-30T00:57:35.937Z,9.80
2018-07-30T00:58:09.070Z,9.55
2018-07-30T00:58:42.192Z,9.40
2018-07-30T00:59:15.302Z,9.65
2018-07-30T00:59:48.403Z,8.73
2018-07-30T01:00:21.620Z,9.35
2018-07-30T01:00:54.706Z,9.43
2018-07-30T01:01:27.802Z,10.23
2018-07-30T01:02:00.887Z,9.80
2018-07-30T01:02:33.979Z,10.13
2018-07-30T01:03:07.059Z,9.55
2018-07-30T01:03:40.291Z,9.33
2018-07-30T01:04:13.463Z,9.08
2018-07-30T01:04:46.570Z,10.03
2018-07-30T01:05:19.948Z,10.13
2018-07-30T01:05:53.093Z,9.35
2018-07-30T01:06:26.180Z,10.05
2018-07-30T01:06:59.298Z,9.75
2018-07-30T01:07:32.484Z,9.10
2018-07-30T01:08:05.534Z,9.43
2018-07-30T01:08:38.623Z,9.83
2018-07-30T01:09:12.040Z,8.98
2018-07-30T01:09:45.130Z,9.58
2018-07-30T01:10:18.209Z,10.00
2018-07-30T01:10:51.394Z,9.88
2018-07-30T01:11:24.535Z,9.90
2018-07-30T01:11:58.704Z,10.05
2018-07-30T01:12:31.795Z,9.70
2018-07-30T01:13:05.945Z,9.28
2018-07-30T01:13:39.077Z,10.40
2018-07-30T01:14:15.754Z,9.58
2018-07-30T01:14:48.838Z,10.38
2018-07-30T01:15:22.046Z,10.13
2018-07-30T01:15:55.261Z,9.60
2018-07-30T01:16:28.415Z,10.40
2018-07-30T01:17:01.522Z,9.15
2018-07-30T01:17:34.629Z,9.88
2018-07-30T01:18:07.778Z,9.98
2018-07-30T01:18:40.895Z,10.35
2018-07-30T01:19:14.019Z,9.80
2018-07-30T01:19:47.224Z,10.15
2018-07-30T01:20:20.435Z,9.90
2018-07-30T01:20:53.502Z,9.83
2018-07-30T01:21:26.635Z,9.75
2018-07-30T01:21:59.796Z,9.95
2018-07-30T01:22:32.953Z,10.50
2018-07-30T01:23:06.213Z,9.50
2018-07-30T01:23:39.379Z,9.48
2018-07-30T01:24:12.620Z,10.43
2018-07-30T01:24:45.866Z,9.70
2018-07-30T01:25:19.007Z,10.05
2018-07-30T01:25:52.162Z,9.80
2018-07-30T01:26:27.307Z,9.65
2018-07-30T01:27:00.438Z,9.30
2018-07-30T01:27:33.571Z,10.70
2018-07-30T01:28:06.763Z,9.90
2018-07-30T01:28:39.959Z,10.53
2018-07-30T01:29:13.140Z,9.90
2018-07-30T01:29:46.265Z,8.98
2018-07-30T01:30:19.367Z,9.78
2018-07-30T01:30:53.222Z,10.68
2018-07-30T01:31:26.419Z,9.90
2018-07-30T01:31:59.550Z,10.20
2018-07-30T01:32:32.841Z,9.93
2018-07-30T01:33:08.526Z,9.88
2018-07-30T01:33:41.653Z,9.88
2018-07-30T01:34:14.861Z,9.93
2018-07-30T01:34:47.981Z,9.10
2018-07-30T01:35:21.148Z,9.75
2018-07-30T01:35:54.254Z,9.53
2018-07-30T01:36:27.373Z,10.00
2018-07-30T01:37:00.534Z,10.45
2018-07-30T01:37:33.606Z,9.60
2018-07-30T01:38:06.681Z,9.60
2018-07-30T01:38:39.776Z,9.73
2018-07-30T01:39:12.933Z,10.03
2018-07-30T01:39:46.952Z,9.50
2018-07-30T01:40:20.071Z,9.63
2018-07-30T01:40:53.268Z,9.40
2018-07-30T01:41:26.367Z,9.40
2018-07-30T01:41:59.484Z,9.65
2018-07-30T01:42:32.603Z,9.68
2018-07-30T01:43:05.714Z,9.48
2018-07-30T01:43:38.814Z,10.08
2018-07-30T01:44:11.924Z,10.18
2018-07-30T01:44:45.060Z,9.53
2018-07-30T01:45:18.307Z,9.95
2018-07-30T01:45:57.845Z,10.30
2018-07-30T01:46:30.923Z,10.32
2018-07-30T01:47:04.029Z,9.88
2018-07-30T01:47:37.151Z,10.35
2018-07-30T01:48:10.237Z,10.72
2018-07-30T01:48:43.321Z,9.93
2018-07-30T01:49:16.472Z,10.35
2018-07-30T01:49:50.566Z,10.70
2018-07-30T01:50:23.678Z,9.60
2018-07-30T01:50:56.888Z,9.88
2018-07-30T01:51:30.016Z,9.58
2018-07-30T01:52:03.087Z,10.08
2018-07-30T01:52:36.262Z,9.18
2018-07-30T01:53:09.432Z,9.58
2018-07-30T01:53:42.523Z,9.80
2018-07-30T01:54:15.615Z,11.03
2018-07-30T01:54:48.759Z,9.95
2018-07-30T01:55:21.966Z,10.55
2018-07-30T01:55:55.358Z,10.00
2018-07-30T01:56:28.635Z,10.60
2018-07-30T01:57:01.817Z,10.15
2018-07-30T01:57:34.958Z,9.60
2018-07-30T01:58:08.051Z,9.78
2018-07-30T01:58:41.550Z,8.93
2018-07-30T01:59:14.605Z,9.80
2018-07-30T01:59:47.659Z,9.85
2018-07-30T02:00:20.784Z,11.05
2018-07-30T02:00:53.894Z,9.85
2018-07-30T02:01:27.012Z,9.68
2018-07-30T02:02:00.152Z,9.80
2018-07-30T02:02:37.614Z,9.33
2018-07-30T02:03:10.744Z,9.98
2018-07-30T02:03:43.839Z,10.10
2018-07-30T02:04:17.024Z,9.13
2018-07-30T02:04:50.181Z,9.50
2018-07-30T02:05:23.283Z,9.95
2018-07-30T02:05:56.412Z,10.68
2018-07-30T02:06:29.497Z,10.35
2018-07-30T02:07:02.654Z,9.60
2018-07-30T02:07:35.797Z,10.00
2018-07-30T02:08:08.884Z,10.23
2018-07-30T02:08:41.990Z,10.23
2018-07-30T02:09:15.129Z,10.38
2018-07-30T02:09:48.300Z,10.38
2018-07-30T02:10:26.498Z,9.98
2018-07-30T02:11:01.329Z,10.32
2018-07-30T02:36:39.057Z,10.55
2018-07-30T02:37:12.167Z,9.90
2018-07-30T02:37:45.274Z,10.93
2018-07-30T02:38:18.540Z,9.98
2018-07-30T02:38:51.720Z,10.95
2018-07-30T02:39:24.815Z,11.78
2018-07-30T02:39:57.912Z,10.30
2018-07-30T02:40:31.155Z,10.23
2018-07-30T02:41:04.407Z,10.45
2018-07-30T02:41:37.589Z,10.35
2018-07-30T02:42:10.686Z,9.90
2018-07-30T02:42:43.794Z,10.63
2018-07-30T02:43:17.079Z,10.93
2018-07-30T02:43:50.160Z,9.90
2018-07-30T02:44:23.266Z,10.75
2018-07-30T02:44:56.404Z,9.60
2018-07-30T02:45:29.504Z,11.25
2018-07-30T02:46:02.581Z,9.83
2018-07-30T02:46:35.880Z,10.30
2018-07-30T02:47:08.979Z,10.20
2018-07-30T02:47:42.254Z,11.28
2018-07-30T02:48:15.435Z,10.08
2018-07-30T02:48:48.591Z,9.28
2018-07-30T02:49:21.663Z,10.10
2018-07-30T02:49:54.766Z,10.15
2018-07-30T02:50:27.861Z,9.80
2018-07-30T02:51:00.975Z,10.23
2018-07-30T02:51:34.204Z,9.58
2018-07-30T02:52:07.292Z,11.00
2018-07-30T02:52:40.382Z,10.20
2018-07-30T02:53:13.503Z,10.43
2018-07-30T02:53:46.601Z,9.93
2018-07-30T02:54:19.694Z,9.40
2018-07-30T02:54:52.853Z,9.68
2018-07-30T02:55:25.962Z,9.90
2018-07-30T02:55:59.050Z,9.28
2018-07-30T02:56:32.164Z,10.20
2018-07-30T02:57:05.231Z,10.15
2018-07-30T02:57:38.352Z,10.08
2018-07-30T02:58:11.450Z,10.23
2018-07-30T02:58:44.549Z,10.45
2018-07-30T02:59:17.659Z,9.83
2018-07-30T02:59:50.974Z,10.45
2018-07-30T03:00:24.197Z,10.70
2018-07-30T03:00:57.304Z,10.18
2018-07-30T03:01:30.391Z,10.45
2018-07-30T03:02:03.480Z,10.60
2018-07-30T03:02:36.603Z,10.70
2018-07-30T03:03:11.576Z,9.95
2018-07-30T03:03:44.703Z,10.70
2018-07-30T03:04:18.040Z,9.98
2018-07-30T03:04:51.139Z,10.85
2018-07-30T03:05:24.235Z,10.08
2018-07-30T03:05:57.472Z,10.40
2018-07-30T03:06:30.647Z,9.98
2018-07-30T03:07:03.744Z,11.10
2018-07-30T03:07:36.859Z,9.70
2018-07-30T03:08:10.205Z,10.45
2018-07-30T03:08:43.318Z,10.13
2018-07-30T03:09:16.512Z,10.28
2018-07-30T03:09:49.582Z,9.80
2018-07-30T03:10:22.681Z,9.55
2018-07-30T03:10:55.746Z,10.08
2018-07-30T03:11:29.549Z,10.45
2018-07-30T03:12:02.652Z,10.68
2018-07-30T03:12:35.891Z,9.13
2018-07-30T03:13:09.376Z,10.32
2018-07-30T03:13:42.451Z,9.90
2018-07-30T03:14:15.547Z,10.18
2018-07-30T03:14:48.698Z,10.53
2018-07-30T03:15:21.862Z,10.50
2018-07-30T03:15:54.985Z,9.80
2018-07-30T03:16:28.083Z,10.60
2018-07-30T03:17:01.192Z,11.18
2018-07-30T03:17:34.300Z,10.48
2018-07-30T03:18:07.426Z,10.55
2018-07-30T03:18:40.518Z,9.90
2018-07-30T03:19:13.611Z,10.85
2018-07-30T03:19:46.686Z,10.43
2018-07-30T03:20:19.831Z,10.30
2018-07-30T03:20:53.053Z,10.00
2018-07-30T03:21:26.150Z,9.88
2018-07-30T03:21:59.235Z,9.88
2018-07-30T03:22:32.414Z,10.98
2018-07-30T03:23:05.533Z,9.55
2018-07-30T03:23:38.622Z,10.30
2018-07-30T03:24:11.733Z,11.05
2018-07-30T03:24:44.907Z,10.55
2018-07-30T03:25:18.076Z,10.48
2018-07-30T03:25:51.163Z,10.40
2018-07-30T03:26:24.252Z,10.95
2018-07-30T03:26:58.019Z,10.55
2018-07-30T03:27:31.144Z,10.45
2018-07-30T03:28:04.231Z,10.63
2018-07-30T03:28:37.544Z,10.55
2018-07-30T03:29:10.620Z,10.15
2018-07-30T03:29:43.811Z,10.68
2018-07-30T03:30:16.893Z,10.93
2018-07-30T03:30:50.114Z,9.70
2018-07-30T03:31:23.196Z,10.72
2018-07-30T03:31:56.295Z,10.08
2018-07-30T03:32:29.400Z,10.35
2018-07-30T03:33:02.529Z,9.23
2018-07-30T03:33:35.615Z,9.55
2018-07-30T03:34:08.703Z,9.73
2018-07-30T03:34:41.828Z,10.58
2018-07-30T03:35:14.980Z,10.00
2018-07-30T03:35:48.077Z,9.68
2018-07-30T03:36:21.184Z,10.00
2018-07-30T03:36:54.315Z,10.03
2018-07-30T03:37:27.436Z,10.58
2018-07-30T03:38:00.650Z,10.70
2018-07-30T03:38:33.747Z,10.18
2018-07-30T03:39:07.543Z,10.80
2018-07-30T03:39:40.661Z,10.53
2018-07-30T03:40:13.758Z,11.10
2018-07-30T03:40:47.055Z,10.63
2018-07-30T03:41:20.303Z,10.35
2018-07-30T03:41:53.966Z,11.43
2018-07-30T03:42:27.088Z,10.63
2018-07-30T03:43:00.291Z,10.45
2018-07-30T03:43:33.389Z,9.80
2018-07-30T03:44:06.800Z,9.88
2018-07-30T03:44:39.955Z,10.68
2018-07-30T03:45:13.102Z,11.12
2018-07-30T03:45:46.275Z,10.00
2018-07-30T03:46:19.407Z,11.05
2018-07-30T03:46:52.534Z,10.32
2018-07-30T03:47:25.684Z,11.15
2018-07-30T03:47:58.883Z,10.93
2018-07-30T03:48:32.053Z,10.60
2018-07-30T03:49:05.200Z,10.78
2018-07-30T03:49:42.463Z,10.35
2018-07-30T03:50:16.322Z,9.93
2018-07-30T03:50:49.435Z,10.32
2018-07-30T03:51:22.566Z,10.43
2018-07-30T03:51:55.899Z,10.68
2018-07-30T03:52:29.035Z,10.05
2018-07-30T03:53:02.251Z,10.88
2018-07-30T03:53:35.367Z,10.50
2018-07-30T03:54:08.466Z,10.93
2018-07-30T03:54:41.605Z,10.10
2018-07-30T03:55:14.720Z,11.48
2018-07-30T03:55:47.903Z,10.10
2018-07-30T03:56:21.007Z,10.70
2018-07-30T03:56:54.294Z,10.40
2018-07-30T03:57:27.457Z,10.50
2018-07-30T03:58:00.583Z,10.50
2018-07-30T03:58:33.719Z,10.58
2018-07-30T03:59:06.922Z,10.70
2018-07-30T03:59:40.267Z,10.70
2018-07-30T04:00:14.136Z,10.30
2018-07-30T04:00:47.174Z,10.05
2018-07-30T04:01:20.279Z,10.10
2018-07-30T04:01:53.820Z,10.20
2018-07-30T04:02:26.916Z,9.70
2018-07-30T04:03:00.047Z,9.45
2018-07-30T04:03:33.143Z,9.90
2018-07-30T04:04:06.572Z,10.00
2018-07-30T04:04:39.802Z,10.10
2018-07-30T04:05:12.921Z,9.80
2018-07-30T04:05:46.069Z,10.88
2018-07-30T04:06:19.235Z,11.05
2018-07-30T04:06:52.378Z,10.78
2018-07-30T04:07:25.529Z,10.48
2018-07-30T04:07:58.689Z,10.93
2018-07-30T04:08:31.864Z,10.63
2018-07-30T04:09:06.112Z,9.48
2018-07-30T04:09:39.570Z,11.48
2018-07-30T04:10:12.693Z,9.63
2018-07-30T04:10:45.810Z,11.20
2018-07-30T04:11:18.900Z,11.55
2018-07-30T04:11:52.000Z,10.28
2018-07-30T04:12:25.959Z,10.40
2018-07-30T04:12:59.106Z,9.90
2018-07-30T04:13:32.271Z,10.30
2018-07-30T04:14:05.396Z,10.20
2018-07-30T04:14:38.630Z,10.93
2018-07-30T04:15:51.448Z,10.60
2018-07-30T04:16:24.550Z,9.90
2018-07-30T04:16:57.638Z,10.00
2018-07-30T04:17:30.808Z,9.90
2018-07-30T04:18:03.893Z,10.20
2018-07-30T04:18:37.001Z,10.43
2018-07-30T04:19:10.340Z,10.20
2018-07-30T04:19:43.509Z,9.35
2018-07-30T04:20:16.645Z,10.53
2018-07-30T04:20:49.753Z,10.00
2018-07-30T04:21:22.839Z,10.10
2018-07-30T04:21:56.332Z,10.10
2018-07-30T04:22:29.483Z,11.03
2018-07-30T04:23:02.585Z,11.25
2018-07-30T04:23:35.699Z,9.43
2018-07-30T04:24:08.831Z,10.30
2018-07-30T04:24:41.923Z,10.72
2018-07-30T04:25:15.127Z,10.08
2018-07-30T04:25:48.314Z,10.40
2018-07-30T04:26:21.501Z,10.55
2018-07-30T04:26:55.488Z,10.43
2018-07-30T04:27:28.636Z,9.95
2018-07-30T04:28:01.899Z,10.40
2018-07-30T04:28:35.019Z,10.30
2018-07-30T04:29:08.151Z,10.13
2018-07-30T04:29:41.241Z,9.55
2018-07-30T04:30:14.319Z,10.55
2018-07-30T04:32:35.807Z,11.05
2018-07-30T04:33:21.738Z,9.90
2018-07-30T04:34:08.616Z,9.90
2018-07-30T04:34:57.881Z,10.70
2018-07-30T04:37:25.326Z,10.00
2018-07-30T04:40:32.351Z,10.55
2018-07-30T04:41:18.360Z,9.75
2018-07-30T04:44:44.915Z,10.13
2018-07-30T04:45:18.070Z,10.32
2018-07-30T04:46:04.674Z,10.10
2018-07-30T04:47:41.434Z,10.05
2018-07-30T04:48:59.785Z,10.95
2018-07-30T04:49:40.720Z,9.55
2018-07-30T04:50:13.873Z,10.90
2018-07-30T04:50:47.108Z,10.10
2018-07-30T04:51:20.222Z,10.82
2018-07-30T04:51:53.603Z,10.03
2018-07-30T04:52:26.780Z,9.83
2018-07-30T04:52:59.968Z,10.10
2018-07-30T04:53:33.070Z,10.65
2018-07-30T04:54:06.811Z,10.75
2018-07-30T04:54:39.916Z,11.22
2018-07-30T04:55:13.000Z,9.60
2018-07-30T04:55:46.074Z,10.55
2018-07-30T04:56:19.272Z,9.95
2018-07-30T04:56:52.432Z,10.03
2018-07-30T04:57:25.697Z,10.43
2018-07-30T04:57:58.763Z,9.40
2018-07-30T04:58:31.898Z,11.33
2018-07-30T04:59:06.145Z,10.38
2018-07-30T04:59:39.252Z,10.10
2018-07-30T05:00:12.416Z,10.25
2018-07-30T05:00:45.628Z,11.15
2018-07-30T05:01:18.899Z,10.65
2018-07-30T05:01:52.063Z,9.30
2018-07-30T05:02:25.218Z,9.93
2018-07-30T05:02:58.331Z,10.43
2018-07-30T05:03:31.484Z,10.40
2018-07-30T05:04:04.581Z,10.90
2018-07-30T05:04:38.040Z,10.53
2018-07-30T05:05:11.211Z,10.10
2018-07-30T05:05:44.317Z,9.50
2018-07-30T05:06:17.496Z,10.45
2018-07-30T05:06:51.231Z,9.78
2018-07-30T05:07:24.377Z,9.90
2018-07-30T05:07:58.151Z,9.93
2018-07-30T05:08:31.336Z,9.53
2018-07-30T05:09:06.020Z,9.68
2018-07-30T05:09:39.182Z,10.15
2018-07-30T05:10:12.304Z,10.63
2018-07-30T05:10:46.046Z,10.23
2018-07-30T05:11:19.387Z,10.80
2018-07-30T05:11:52.507Z,9.65
2018-07-30T05:12:25.706Z,9.08
2018-07-30T05:12:59.172Z,10.10
2018-07-30T05:13:32.326Z,9.78
2018-07-30T05:14:05.405Z,10.85
2018-07-30T05:14:38.514Z,9.50
2018-07-30T05:15:11.818Z,10.20
2018-07-30T05:15:44.911Z,10.43
2018-07-30T05:16:17.991Z,9.78
2018-07-30T05:16:51.165Z,10.08
2018-07-30T05:17:24.388Z,10.30
2018-07-30T05:17:57.499Z,11.78
2018-07-30T05:18:30.766Z,10.80
2018-07-30T05:19:03.906Z,11.10
2018-07-30T05:19:37.167Z,10.82
2018-07-30T05:20:10.239Z,10.13
2018-07-30T05:20:43.358Z,10.90
2018-07-30T05:21:16.479Z,10.38
2018-07-30T05:21:49.591Z,10.10
2018-07-30T05:22:22.798Z,10.75
2018-07-30T05:23:01.896Z,10.50
2018-07-30T05:23:35.480Z,10.55
2018-07-30T05:24:08.595Z,10.45
2018-07-30T05:24:42.211Z,10.23
2018-07-30T05:25:15.344Z,9.33
2018-07-30T05:25:48.514Z,10.15
2018-07-30T05:26:21.625Z,9.90
2018-07-30T05:26:54.699Z,10.08
2018-07-30T05:27:28.090Z,11.12
2018-07-30T05:28:01.364Z,10.70
2018-07-30T05:28:34.763Z,10.68
2018-07-30T05:29:07.887Z,10.50
2018-07-30T05:29:40.938Z,11.12
2018-07-30T05:30:14.035Z,11.55
2018-07-30T05:30:47.152Z,11.28
2018-07-30T05:31:20.323Z,10.88
2018-07-30T05:31:53.491Z,11.08
2018-07-30T05:32:26.596Z,10.95
2018-07-30T05:32:59.908Z,11.20
2018-07-30T05:33:33.040Z,10.85
2018-07-30T05:34:06.215Z,11.60
2018-07-30T05:34:39.390Z,11.33
2018-07-30T05:35:12.608Z,10.20
2018-07-30T05:35:45.755Z,11.05
2018-07-30T05:36:18.940Z,11.12
2018-07-30T05:36:52.183Z,10.70
2018-07-30T05:37:25.297Z,10.70
2018-07-30T05:37:59.341Z,10.45
2018-07-30T05:38:32.494Z,10.40
2018-07-30T05:39:06.911Z,10.40
2018-07-30T05:39:40.454Z,10.70
2018-07-30T05:40:14.061Z,10.32
2018-07-30T05:40:49.467Z,10.72
2018-07-30T05:41:22.770Z,10.95
2018-07-30T05:41:55.993Z,11.40
2018-07-30T05:42:29.329Z,10.98
2018-07-30T05:43:03.238Z,11.48
2018-07-30T05:43:36.689Z,10.50
2018-07-30T05:44:09.871Z,11.63
2018-07-30T05:44:43.066Z,11.00
2018-07-30T05:45:16.289Z,10.50
2018-07-30T05:45:49.482Z,11.10
2018-07-30T05:46:22.930Z,10.72
2018-07-30T05:46:56.694Z,11.20
2018-07-30T05:47:30.327Z,10.85
2018-07-30T05:48:03.483Z,10.75
2018-07-30T05:48:36.610Z,10.78
2018-07-30T05:49:09.719Z,10.40
2018-07-30T05:49:42.890Z,10.60
2018-07-30T05:50:18.197Z,10.58
2018-07-30T05:50:51.667Z,10.10
2018-07-30T05:51:24.899Z,10.75
2018-07-30T05:51:57.977Z,11.20
2018-07-30T05:52:31.244Z,10.20
2018-07-30T05:53:04.540Z,10.93
2018-07-30T05:53:37.917Z,10.60
2018-07-30T05:54:11.063Z,10.58
2018-07-30T05:54:44.176Z,10.30
2018-07-30T05:55:17.431Z,10.90
2018-07-30T05:55:51.024Z,11.15
2018-07-30T05:56:24.326Z,11.03
2018-07-30T05:56:57.413Z,11.38
2018-07-30T05:57:30.510Z,11.45
2018-07-30T05:58:04.026Z,10.00
2018-07-30T05:58:37.445Z,10.72
2018-07-30T05:59:10.601Z,10.38
2018-07-30T05:59:43.761Z,10.98
2018-07-30T06:00:17.077Z,11.03
2018-07-30T06:00:50.182Z,10.63
2018-07-30T06:01:23.377Z,10.48
2018-07-30T06:01:56.802Z,11.03
2018-07-30T06:02:29.914Z,10.90
2018-07-30T06:03:03.271Z,10.40
2018-07-30T06:03:36.454Z,10.98
2018-07-30T06:04:09.815Z,10.30
2018-07-30T06:04:42.972Z,12.35
2018-07-30T06:05:16.644Z,11.73
2018-07-30T06:05:49.862Z,12.00
2018-07-30T06:06:22.964Z,12.20
2018-07-30T06:06:56.440Z,11.45
2018-07-30T06:07:29.586Z,10.70
2018-07-30T06:08:02.838Z,10.23
2018-07-30T06:08:36.092Z,10.63
2018-07-30T06:09:10.295Z,11.38
2018-07-30T06:09:43.543Z,11.12
2018-07-30T06:10:16.651Z,10.90
2018-07-30T06:10:49.808Z,11.45
2018-07-30T06:11:23.034Z,9.90
2018-07-30T06:11:56.163Z,11.73
2018-07-30T06:12:29.261Z,10.90
2018-07-30T06:13:02.528Z,11.55
2018-07-30T06:13:35.769Z,10.88
2018-07-30T06:14:09.001Z,10.93
2018-07-30T06:14:42.092Z,10.98
2018-07-30T06:15:15.360Z,11.33
2018-07-30T06:15:48.473Z,11.53
2018-07-30T06:16:21.572Z,10.60
2018-07-30T06:16:54.813Z,10.20
2018-07-30T06:17:27.970Z,12.78
2018-07-30T06:18:01.083Z,11.68
2018-07-30T06:18:34.288Z,11.12
2018-07-30T06:19:07.390Z,11.60
2018-07-30T06:19:40.512Z,12.35
2018-07-30T06:20:13.669Z,10.80
2018-07-30T06:20:46.819Z,11.15
2018-07-30T06:21:20.245Z,11.12
2018-07-30T06:21:53.542Z,11.68
2018-07-30T06:22:26.900Z,10.85
2018-07-30T06:23:00.051Z,10.58
2018-07-30T06:23:33.218Z,11.28
2018-07-30T06:24:06.540Z,11.33
2018-07-30T06:24:39.637Z,11.45
2018-07-30T06:25:13.056Z,10.90
2018-07-30T06:25:46.236Z,11.90
2018-07-30T06:26:19.365Z,11.33
2018-07-30T06:26:52.651Z,10.98
2018-07-30T06:27:25.803Z,11.97
2018-07-30T06:27:58.895Z,11.93
2018-07-30T06:28:31.975Z,11.53
2018-07-30T06:29:05.123Z,11.15
2018-07-30T06:29:38.496Z,11.63
2018-07-30T06:30:12.093Z,11.28
2018-07-30T06:30:45.247Z,10.85
2018-07-30T06:31:18.454Z,11.90
2018-07-30T06:31:51.624Z,11.18
2018-07-30T06:32:25.119Z,11.88
2018-07-30T06:32:58.210Z,11.38
2018-07-30T06:33:31.355Z,11.40
2018-07-30T06:34:04.538Z,10.25
2018-07-30T06:34:37.644Z,10.55
2018-07-30T06:35:10.890Z,11.30
2018-07-30T06:35:44.019Z,11.30
2018-07-30T06:36:17.107Z,12.00
2018-07-30T06:36:50.214Z,11.95
2018-07-30T06:37:24.060Z,11.75
2018-07-30T06:37:57.186Z,11.83
2018-07-30T06:38:30.396Z,12.10
2018-07-30T06:39:04.375Z,11.63
2018-07-30T06:39:37.613Z,12.40
2018-07-30T06:40:10.693Z,11.30
2018-07-30T06:40:43.907Z,12.13
2018-07-30T06:41:16.957Z,10.93
2018-07-30T06:41:50.279Z,11.28
2018-07-30T06:42:23.341Z,11.15
2018-07-30T06:42:56.438Z,11.25
2018-07-30T06:43:29.821Z,11.90
2018-07-30T06:44:03.013Z,11.60
2018-07-30T06:44:36.117Z,11.25
2018-07-30T06:45:09.331Z,11.45
2018-07-30T06:45:42.426Z,11.03
2018-07-30T06:46:15.645Z,11.45
2018-07-30T06:46:48.852Z,11.65
2018-07-30T06:47:21.964Z,12.10
2018-07-30T06:47:55.124Z,11.73
2018-07-30T06:48:28.322Z,12.03
2018-07-30T06:49:01.475Z,11.30
2018-07-30T06:49:34.765Z,11.60
2018-07-30T06:50:08.331Z,11.30
2018-07-30T06:50:41.448Z,10.95
2018-07-30T06:51:14.606Z,11.50
2018-07-30T06:51:47.852Z,11.85
2018-07-30T06:52:21.031Z,11.55
2018-07-30T06:52:54.465Z,12.53
2018-07-30T06:53:27.745Z,11.20
2018-07-30T06:54:01.230Z,11.48
2018-07-30T06:54:34.346Z,12.40
2018-07-30T06:55:08.193Z,11.18
2018-07-30T06:55:41.375Z,11.43
2018-07-30T06:56:14.495Z,11.25
2018-07-30T06:56:47.609Z,10.80
2018-07-30T06:57:20.803Z,11.40
2018-07-30T06:57:54.271Z,11.08
2018-07-30T06:58:27.594Z,11.70
2018-07-30T06:59:00.746Z,12.85
2018-07-30T06:59:33.846Z,11.40
2018-07-30T07:00:07.919Z,10.75
2018-07-30T07:00:41.010Z,10.98
2018-07-30T07:01:14.299Z,10.00
2018-07-30T07:01:47.567Z,10.68
2018-07-30T07:02:20.670Z,11.12
2018-07-30T07:02:53.807Z,10.35
2018-07-30T07:03:26.988Z,10.40
2018-07-30T07:04:00.230Z,10.35
2018-07-30T07:04:33.587Z,9.95
2018-07-30T07:05:06.800Z,9.60
2018-07-30T07:05:39.907Z,9.28
2018-07-30T07:06:13.225Z,10.00
2018-07-30T07:06:46.308Z,10.15
2018-07-30T07:07:19.512Z,10.48
2018-07-30T07:07:52.783Z,11.57
2018-07-30T07:08:25.896Z,9.43
2018-07-30T07:08:59.116Z,10.32
2018-07-30T07:09:32.339Z,10.85
2018-07-30T07:10:06.764Z,9.45
2018-07-30T07:10:39.879Z,9.63
2018-07-30T07:11:13.092Z,10.30
2018-07-30T07:11:46.219Z,10.55
2018-07-30T07:12:19.388Z,10.65
2018-07-30T07:12:52.515Z,10.23
2018-07-30T07:13:25.670Z,10.18
2018-07-30T07:13:58.827Z,9.70
2018-07-30T07:14:31.976Z,9.40
2018-07-30T07:15:05.201Z,10.13
2018-07-30T07:15:39.192Z,10.20
2018-07-30T07:16:12.327Z,10.43
2018-07-30T07:16:45.541Z,9.78
2018-07-30T07:17:18.747Z,9.00
2018-07-30T07:17:51.889Z,9.85
2018-07-30T07:18:25.011Z,9.70
2018-07-30T07:18:58.122Z,8.98
2018-07-30T07:19:31.247Z,10.30
2018-07-30T07:20:04.721Z,9.68
2018-07-30T07:20:37.838Z,9.50
2018-07-30T07:21:11.003Z,9.50
2018-07-30T07:21:44.450Z,9.18
2018-07-30T07:22:17.800Z,9.93
2018-07-30T07:22:50.933Z,10.20
2018-07-30T07:23:24.192Z,9.50
2018-07-30T07:23:57.386Z,10.00
2018-07-30T07:24:30.508Z,10.08
2018-07-30T07:25:04.018Z,10.43
2018-07-30T07:25:37.144Z,10.88
2018-07-30T07:26:11.009Z,10.10
2018-07-30T07:26:44.169Z,9.73
2018-07-30T07:27:17.256Z,8.95
2018-07-30T07:27:50.450Z,8.85
2018-07-30T07:28:23.824Z,10.05
2018-07-30T07:28:56.941Z,9.05
2018-07-30T07:29:30.071Z,10.03
2018-07-30T07:30:03.216Z,9.00
2018-07-30T07:30:36.328Z,10.10
2018-07-30T07:31:09.586Z,10.43
2018-07-30T07:31:42.757Z,9.25
2018-07-30T07:32:15.868Z,8.55
2018-07-30T07:32:49.071Z,10.20
2018-07-30T07:33:22.177Z,8.40
2018-07-30T07:33:55.534Z,9.28
2018-07-30T07:34:28.667Z,9.08
2018-07-30T07:35:01.836Z,8.75
2018-07-30T07:35:34.878Z,9.40
2018-07-30T07:36:07.984Z,9.25
2018-07-30T07:36:41.079Z,9.50
2018-07-30T07:37:14.374Z,9.13
2018-07-30T07:37:47.756Z,8.85
2018-07-30T07:38:20.876Z,9.18
2018-07-30T07:38:53.992Z,10.10
2018-07-30T07:39:27.135Z,9.20
2018-07-30T07:40:00.220Z,9.55
2018-07-30T07:40:33.327Z,9.45
2018-07-30T07:41:07.136Z,9.40
2018-07-30T07:41:40.597Z,9.25
2018-07-30T07:42:13.732Z,9.45
2018-07-30T07:42:46.850Z,9.80
2018-07-30T07:43:20.016Z,9.78
2018-07-30T07:43:53.189Z,9.08
2018-07-30T07:44:26.510Z,9.18
2018-07-30T07:44:59.576Z,9.95
2018-07-30T07:45:32.862Z,8.55
2018-07-30T07:46:06.169Z,9.95
2018-07-30T07:46:39.274Z,8.93
2018-07-30T07:47:12.405Z,9.00
2018-07-30T07:47:45.570Z,8.95
2018-07-30T07:48:18.747Z,8.58
2018-07-30T07:48:52.012Z,9.20
2018-07-30T07:49:25.936Z,9.78
2018-07-30T07:49:59.256Z,9.03
2018-07-30T07:50:32.382Z,8.55
2018-07-30T07:51:05.732Z,8.85
2018-07-30T07:51:38.912Z,10.20
2018-07-30T07:52:12.216Z,9.93
2018-07-30T07:52:45.412Z,9.15
2018-07-30T07:53:18.519Z,8.38
2018-07-30T07:53:51.643Z,8.98
2018-07-30T07:54:24.776Z,9.43
2018-07-30T07:54:57.873Z,9.38
2018-07-30T07:55:31.044Z,8.60
2018-07-30T07:56:04.155Z,9.28
2018-07-30T07:56:37.332Z,9.18
2018-07-30T07:57:10.573Z,9.20
2018-07-30T07:57:43.680Z,8.68
2018-07-30T07:58:16.937Z,9.60
2018-07-30T07:58:50.116Z,9.20
2018-07-30T07:59:23.216Z,9.68
2018-07-30T07:59:56.470Z,9.45
2018-07-30T08:00:29.715Z,9.30
2018-07-30T08:01:02.927Z,8.18
2018-07-30T08:01:36.377Z,8.55
2018-07-30T08:02:09.585Z,8.95
2018-07-30T08:02:42.723Z,8.95
2018-07-30T08:03:15.867Z,8.70
2018-07-30T08:03:49.009Z,8.75
2018-07-30T08:04:22.180Z,8.55
2018-07-30T08:04:55.302Z,9.55
2018-07-30T08:05:28.382Z,8.80
2018-07-30T08:06:01.465Z,8.80
2018-07-30T08:06:34.568Z,9.20
2018-07-30T08:07:07.680Z,7.75
2018-07-30T08:07:41.035Z,8.08
2018-07-30T08:08:14.214Z,8.85
2018-07-30T08:08:47.337Z,8.95
2018-07-30T08:09:20.471Z,9.43
2018-07-30T08:09:53.685Z,8.88
2018-07-30T08:10:26.714Z,9.10
2018-07-30T08:10:59.989Z,8.55